createdAt,value
2022-11-16T00:01:35.150Z,19.98
2022-11-16T00:04:38.319Z,19.23
2022-11-16T00:07:41.061Z,20.43
2022-11-16T00:10:43.796Z,20.35
2022-11-16T00:13:46.442Z,21.00
2022-11-16T00:16:49.258Z,19.95
2022-11-16T00:19:51.919Z,20.38
2022-11-16T00:22:54.662Z,19.30
2022-11-16T00:26:04.974Z,21.05
2022-11-16T00:29:10.555Z,19.30
2022-11-16T00:32:13.169Z,19.48
2022-11-16T00:35:15.809Z,19.40
2022-11-16T00:38:18.564Z,18.90
2022-11-16T00:41:21.281Z,19.98
2022-11-16T00:44:23.875Z,20.80
2022-11-16T00:47:27.469Z,18.30
2022-11-16T00:50:30.114Z,18.42
2022-11-16T00:53:33.619Z,19.63
2022-11-16T00:56:37.476Z,17.83
2022-11-16T00:59:41.465Z,18.50
2022-11-16T01:02:44.327Z,19.15
2022-11-16T01:05:47.445Z,17.73
2022-11-16T01:08:51.324Z,17.37
2022-11-16T01:12:09.431Z,18.92
2022-11-16T01:15:13.619Z,18.25
2022-11-16T01:18:16.777Z,19.15
2022-11-16T01:21:20.034Z,18.55
2022-11-16T01:24:23.260Z,18.33
2022-11-16T01:27:26.084Z,19.38
2022-11-16T01:30:29.741Z,19.20
2022-11-16T01:33:40.836Z,17.50
2022-11-16T01:36:50.318Z,16.80
2022-11-16T01:39:54.051Z,17.20
2022-11-16T01:42:57.165Z,17.05
2022-11-16T01:45:59.958Z,18.08
2022-11-16T01:49:13.460Z,18.35
2022-11-16T01:52:30.962Z,17.33
2022-11-16T01:55:34.950Z,17.60
2022-11-16T01:58:46.474Z,18.55
2022-11-16T02:02:00.269Z,18.08
2022-11-16T02:05:04.652Z,16.92
2022-11-16T02:08:55.273Z,19.50
2022-11-16T02:12:27.943Z,17.40
2022-11-16T02:15:51.821Z,17.00
2022-11-16T02:19:18.256Z,16.70
2022-11-16T02:22:54.231Z,16.85
2022-11-16T02:26:30.600Z,17.80
2022-11-16T02:29:40.176Z,17.77
2022-11-16T02:32:53.561Z,21.13
2022-11-16T02:36:00.777Z,17.45
2022-11-16T02:39:11.470Z,18.10
2022-11-16T02:42:19.459Z,17.00
2022-11-16T02:45:25.645Z,18.37
2022-11-16T02:48:34.978Z,18.40
2022-11-16T02:51:40.104Z,16.70
2022-11-16T02:54:42.935Z,17.83
2022-11-16T02:57:53.794Z,16.60
2022-11-16T03:00:58.896Z,17.97
2022-11-16T03:04:11.305Z,19.95
2022-11-16T03:07:17.594Z,15.35
2022-11-16T03:10:40.489Z,16.73
2022-11-16T03:13:45.022Z,17.27
2022-11-16T03:16:56.015Z,17.73
2022-11-16T03:20:06.686Z,16.77
2022-11-16T03:23:13.076Z,19.42
2022-11-16T03:26:22.894Z,17.17
2022-11-16T03:29:34.031Z,16.55
2022-11-16T03:33:03.825Z,16.90
2022-11-16T03:36:19.267Z,15.98
2022-11-16T03:39:29.329Z,17.63
2022-11-16T03:42:33.492Z,16.13
2022-11-16T03:45:36.989Z,16.20
2022-11-16T03:48:42.342Z,18.80
2022-11-16T03:51:53.302Z,17.48
2022-11-16T03:54:56.586Z,15.77
2022-11-16T03:58:01.206Z,16.63
2022-11-16T04:01:04.098Z,15.40
2022-11-16T04:04:07.322Z,16.13
2022-11-16T04:07:28.845Z,17.80
2022-11-16T04:10:50.390Z,16.17
2022-11-16T04:14:12.815Z,17.67
2022-11-16T04:17:38.040Z,16.33
2022-11-16T04:20:59.857Z,16.83
2022-11-16T04:24:14.946Z,15.70
2022-11-16T04:27:41.394Z,14.65
2022-11-16T04:31:06.648Z,16.10
2022-11-16T04:34:29.201Z,15.40
2022-11-16T04:37:50.327Z,16.97
2022-11-16T04:41:01.208Z,15.95
2022-11-16T04:44:04.114Z,16.90
2022-11-16T04:47:07.065Z,16.60
2022-11-16T04:50:12.679Z,14.85
2022-11-16T04:53:20.485Z,15.73
2022-11-16T04:56:29.088Z,15.45
2022-11-16T04:59:32.351Z,13.90
2022-11-16T05:02:35.103Z,14.00
2022-11-16T05:05:37.802Z,14.45
2022-11-16T05:08:40.821Z,14.33
2022-11-16T05:11:43.753Z,14.35
2022-11-16T05:14:46.735Z,13.98
2022-11-16T05:17:51.695Z,14.65
2022-11-16T05:21:02.001Z,16.35
2022-11-16T05:24:32.045Z,15.07
2022-11-16T05:27:35.293Z,14.20
2022-11-16T05:30:39.115Z,14.63
2022-11-16T05:33:42.253Z,14.45
2022-11-16T05:36:46.736Z,15.50
2022-11-16T05:39:49.586Z,15.27
2022-11-16T05:42:52.512Z,15.82
2022-11-16T05:45:56.957Z,14.40
2022-11-16T05:48:59.872Z,15.88
2022-11-16T05:52:02.704Z,14.68
2022-11-16T05:55:06.018Z,15.30
2022-11-16T05:58:14.834Z,14.10
2022-11-16T06:01:19.153Z,14.93
2022-11-16T06:04:24.894Z,15.07
2022-11-16T06:07:29.816Z,15.93
2022-11-16T06:10:34.584Z,15.20
2022-11-16T06:13:37.939Z,14.32
2022-11-16T06:16:41.808Z,15.02
2022-11-16T06:19:46.932Z,13.82
2022-11-16T06:22:51.552Z,14.45
2022-11-16T06:25:57.413Z,14.00
2022-11-16T06:29:03.281Z,16.15
2022-11-16T06:32:06.022Z,15.25
2022-11-16T06:35:11.312Z,13.70
2022-11-16T06:38:18.810Z,13.63
2022-11-16T06:41:23.650Z,14.50
2022-11-16T06:44:27.281Z,17.05
2022-11-16T06:47:36.163Z,14.68
2022-11-16T06:50:40.066Z,13.50
2022-11-16T06:53:53.090Z,16.00
2022-11-16T06:57:00.055Z,14.87
2022-11-16T07:00:05.512Z,13.80
2022-11-16T07:03:14.656Z,16.85
2022-11-16T07:06:17.786Z,15.98
2022-11-16T07:09:23.197Z,19.20
2022-11-16T07:12:27.501Z,14.90
2022-11-16T07:15:33.893Z,15.77
2022-11-16T07:18:41.778Z,15.90
2022-11-16T07:21:45.191Z,15.05
2022-11-16T07:24:53.206Z,14.15
2022-11-16T07:27:58.886Z,14.73
2022-11-16T07:31:07.353Z,14.65
2022-11-16T07:34:12.193Z,14.57
2022-11-16T07:37:24.200Z,17.58
2022-11-16T07:40:27.554Z,18.63
2022-11-16T07:43:37.150Z,17.67
2022-11-16T07:46:58.766Z,16.52
2022-11-16T07:50:02.270Z,15.32
2022-11-16T07:53:05.246Z,17.00
2022-11-16T07:56:28.680Z,15.20
2022-11-16T07:59:32.286Z,13.50
2022-11-16T08:02:37.500Z,15.98
2022-11-16T08:05:41.400Z,14.50
2022-11-16T08:08:45.295Z,15.73
2022-11-16T08:11:51.124Z,18.55
2022-11-16T08:14:55.238Z,21.30
2022-11-16T08:17:59.330Z,15.40
2022-11-16T08:21:11.374Z,15.13
2022-11-16T08:24:15.269Z,15.45
2022-11-16T08:27:20.290Z,13.38
2022-11-16T08:30:28.382Z,15.80
2022-11-16T08:33:33.366Z,17.08
2022-11-16T08:36:36.432Z,16.95
2022-11-16T08:39:41.382Z,15.13
2022-11-16T08:42:45.337Z,16.10
2022-11-16T08:45:50.111Z,16.57
2022-11-16T08:48:58.077Z,16.45
2022-11-16T08:52:01.358Z,14.30
2022-11-16T08:55:08.345Z,13.75
2022-11-16T08:58:11.668Z,18.33
2022-11-16T09:01:19.175Z,15.03
2022-11-16T09:04:23.468Z,15.70
2022-11-16T09:07:26.408Z,15.27
2022-11-16T09:10:29.421Z,13.20
2022-11-16T09:13:32.394Z,17.15
2022-11-16T09:16:35.426Z,19.13
2022-11-16T09:19:38.390Z,17.23
2022-11-16T09:22:42.021Z,14.90
2022-11-16T09:26:06.026Z,16.38
2022-11-16T09:29:14.274Z,14.82
2022-11-16T09:32:16.959Z,14.83
2022-11-16T09:35:21.021Z,16.17
2022-11-16T09:38:40.323Z,13.93
2022-11-16T09:42:04.170Z,15.70
2022-11-16T09:45:12.631Z,17.52
2022-11-16T09:48:17.278Z,14.57
2022-11-16T09:51:23.849Z,17.55
2022-11-16T09:54:31.735Z,17.92
2022-11-16T09:57:37.659Z,15.60
2022-11-16T10:00:46.942Z,15.70
2022-11-16T10:03:54.274Z,14.80
2022-11-16T10:07:03.254Z,15.38
2022-11-16T10:10:08.517Z,15.45
2022-11-16T10:13:49.814Z,16.75
2022-11-16T10:17:43.451Z,14.95
2022-11-16T10:21:10.959Z,16.37
2022-11-16T10:24:33.645Z,16.75
2022-11-16T10:27:58.756Z,18.95
2022-11-16T10:31:13.940Z,15.52
2022-11-16T10:34:22.406Z,15.90
2022-11-16T10:37:31.008Z,15.20
2022-11-16T10:40:38.528Z,14.63
2022-11-16T10:43:43.510Z,15.15
2022-11-16T10:47:04.535Z,18.13
2022-11-16T10:50:42.048Z,14.60
2022-11-16T10:53:45.026Z,13.43
2022-11-16T10:56:52.022Z,14.20
2022-11-16T10:59:55.960Z,14.07
2022-11-16T11:02:58.627Z,13.93
2022-11-16T11:06:02.521Z,15.70
2022-11-16T11:09:22.902Z,16.37
2022-11-16T11:12:38.949Z,15.65
2022-11-16T11:15:43.165Z,18.25
2022-11-16T11:18:46.087Z,15.60
2022-11-16T11:21:49.158Z,14.13
2022-11-16T11:24:52.397Z,14.77
2022-11-16T11:28:07.682Z,13.02
2022-11-16T11:31:26.158Z,14.20
2022-11-16T11:34:50.902Z,14.00
2022-11-16T11:37:56.416Z,14.82
2022-11-16T11:41:02.192Z,12.90
2022-11-16T11:44:16.875Z,12.90
2022-11-16T11:51:05.050Z,16.90
2022-11-16T11:54:14.987Z,13.40
2022-11-16T11:57:23.152Z,12.97
2022-11-16T12:00:26.353Z,18.40
2022-11-16T12:03:31.921Z,16.10
2022-11-16T12:06:43.886Z,19.58
2022-11-16T12:10:04.827Z,14.50
2022-11-16T12:13:34.778Z,12.43
2022-11-16T12:17:03.008Z,12.60
2022-11-16T12:20:29.954Z,14.73
2022-11-16T12:23:51.852Z,13.82
2022-11-16T12:27:12.757Z,13.32
2022-11-16T12:30:19.110Z,14.90
2022-11-16T12:33:29.042Z,11.85
2022-11-16T12:36:46.110Z,12.50
2022-11-16T12:40:10.613Z,12.30
2022-11-16T12:43:18.295Z,13.00
2022-11-16T12:46:58.296Z,13.27
2022-11-16T12:50:29.948Z,15.43
2022-11-16T12:53:32.965Z,15.07
2022-11-16T12:56:49.293Z,13.63
2022-11-16T13:00:07.252Z,12.32
2022-11-16T13:03:39.594Z,13.73
2022-11-16T13:06:47.688Z,13.27
2022-11-16T13:10:12.635Z,12.50
2022-11-16T13:13:36.920Z,14.63
2022-11-16T13:16:40.193Z,10.90
2022-11-16T13:20:02.512Z,11.97
2022-11-16T13:23:23.761Z,13.10
2022-11-16T13:26:56.442Z,12.50
2022-11-16T13:30:21.481Z,13.00
2022-11-16T13:33:34.244Z,13.88
2022-11-16T13:36:45.703Z,11.27
2022-11-16T13:39:51.178Z,13.10
2022-11-16T13:43:12.008Z,12.90
2022-11-16T13:49:48.221Z,12.52
2022-11-16T13:56:28.391Z,12.75
2022-11-16T13:59:34.956Z,14.57
2022-11-16T14:02:43.584Z,16.40
2022-11-16T14:05:48.672Z,14.82
2022-11-16T14:08:56.067Z,14.90
2022-11-16T14:12:37.441Z,17.92
2022-11-16T14:15:40.096Z,15.52
2022-11-16T14:18:46.967Z,16.02
2022-11-16T14:22:03.369Z,18.65
2022-11-16T14:25:23.853Z,15.47
2022-11-16T14:28:49.329Z,21.10
2022-11-16T14:32:01.491Z,23.75
2022-11-16T14:35:06.593Z,17.08
2022-11-16T14:38:28.705Z,17.70
2022-11-16T14:41:31.642Z,18.97
2022-11-16T14:44:39.152Z,15.05
2022-11-16T14:47:41.911Z,16.20
2022-11-16T14:51:06.631Z,15.20
2022-11-16T14:54:15.601Z,18.48
2022-11-16T14:57:21.038Z,18.20
2022-11-16T15:00:30.328Z,16.13
2022-11-16T15:03:59.045Z,20.17
2022-11-16T15:07:05.039Z,18.27
2022-11-16T15:10:16.658Z,17.90
2022-11-16T15:13:22.344Z,17.93
2022-11-16T15:16:25.043Z,15.82
2022-11-16T15:19:30.936Z,17.85
2022-11-16T15:22:40.913Z,14.88
2022-11-16T15:25:51.741Z,16.17
2022-11-16T15:28:55.418Z,16.03
2022-11-16T15:31:58.688Z,15.85
2022-11-16T15:35:05.297Z,17.23
2022-11-16T15:38:26.368Z,18.15
2022-11-16T15:41:29.556Z,15.75
2022-11-16T15:44:33.640Z,15.30
2022-11-16T15:47:37.619Z,16.45
2022-11-16T15:50:40.354Z,17.08
2022-11-16T15:53:45.181Z,13.35
2022-11-16T15:56:48.728Z,16.27
2022-11-16T15:59:57.735Z,13.93
2022-11-16T16:03:05.314Z,13.30
2022-11-16T16:06:14.488Z,14.73
2022-11-16T16:09:36.924Z,13.30
2022-11-16T16:12:57.470Z,16.23
2022-11-16T16:16:21.822Z,15.33
2022-11-16T16:19:42.729Z,14.02
2022-11-16T16:22:45.572Z,16.90
2022-11-16T16:25:50.745Z,13.00
2022-11-16T16:28:53.554Z,12.98
2022-11-16T16:31:56.382Z,13.10
2022-11-16T16:35:01.712Z,12.77
2022-11-16T16:38:13.896Z,16.48
2022-11-16T16:41:23.945Z,12.80
2022-11-16T16:44:26.922Z,12.82
2022-11-16T16:47:31.294Z,15.10
2022-11-16T16:50:34.072Z,14.32
2022-11-16T16:53:38.946Z,13.32
2022-11-16T16:56:41.613Z,14.73
2022-11-16T16:59:45.942Z,12.20
2022-11-16T17:02:49.277Z,11.53
2022-11-16T17:05:53.499Z,11.77
2022-11-16T17:08:57.695Z,12.82
2022-11-16T17:12:00.573Z,12.48
2022-11-16T17:15:04.005Z,13.65
2022-11-16T17:18:07.139Z,13.10
2022-11-16T17:21:11.176Z,17.25
2022-11-16T17:24:14.147Z,12.88
2022-11-16T17:27:17.289Z,12.52
2022-11-16T17:30:20.535Z,12.05
2022-11-16T17:33:23.268Z,11.53
2022-11-16T17:36:26.314Z,12.95
2022-11-16T17:39:29.331Z,11.75
2022-11-16T17:42:34.591Z,11.93
2022-11-16T17:45:40.003Z,11.60
2022-11-16T17:48:47.297Z,11.00
2022-11-16T17:51:50.300Z,13.35
2022-11-16T17:54:53.428Z,12.73
2022-11-16T17:57:57.880Z,12.63
2022-11-16T18:01:01.836Z,12.80
2022-11-16T18:04:05.061Z,12.07
2022-11-16T18:07:07.945Z,12.23
2022-11-16T18:10:14.951Z,12.13
2022-11-16T18:13:20.858Z,10.68
2022-11-16T18:16:27.061Z,10.40
2022-11-16T18:19:30.209Z,11.83
2022-11-16T18:22:34.346Z,11.30
2022-11-16T18:25:40.209Z,10.90
2022-11-16T18:28:47.225Z,11.13
2022-11-16T18:31:50.324Z,12.50
2022-11-16T18:34:54.293Z,11.47
2022-11-16T18:37:58.105Z,11.50
2022-11-16T18:41:12.899Z,10.40
2022-11-16T18:44:16.170Z,13.68
2022-11-16T18:47:21.347Z,11.32
2022-11-16T18:50:27.021Z,11.67
2022-11-16T18:53:31.467Z,12.05
2022-11-16T18:56:36.700Z,11.60
2022-11-16T18:59:39.761Z,11.80
2022-11-16T19:02:44.898Z,11.75
2022-11-16T19:05:57.261Z,13.33
2022-11-16T19:09:00.497Z,10.77
2022-11-16T19:12:03.598Z,12.23
2022-11-16T19:15:07.095Z,11.43
2022-11-16T19:18:21.060Z,12.02
2022-11-16T19:21:25.024Z,10.87
2022-11-16T19:24:28.854Z,10.15
2022-11-16T19:27:32.652Z,13.45
2022-11-16T19:30:35.857Z,10.23
2022-11-16T19:33:39.840Z,11.75
2022-11-16T19:36:42.940Z,10.70
2022-11-16T19:39:49.064Z,11.55
2022-11-16T19:42:53.321Z,11.77
2022-11-16T19:45:56.526Z,10.38
2022-11-16T19:49:02.601Z,11.73
2022-11-16T19:52:06.031Z,10.30
2022-11-16T19:55:11.318Z,11.95
2022-11-16T19:58:14.544Z,10.93
2022-11-16T20:01:18.660Z,10.60
2022-11-16T20:04:21.868Z,9.80
2022-11-16T20:07:24.939Z,11.77
2022-11-16T20:10:29.858Z,10.77
2022-11-16T20:13:33.738Z,11.75
2022-11-16T20:16:39.619Z,10.32
2022-11-16T20:19:42.723Z,10.38
2022-11-16T20:22:48.022Z,10.70
2022-11-16T20:25:50.754Z,10.15
2022-11-16T20:28:54.606Z,10.65
2022-11-16T20:31:58.830Z,9.95
2022-11-16T20:35:01.952Z,9.90
2022-11-16T20:38:04.659Z,10.60
2022-11-16T20:41:12.987Z,10.15
2022-11-16T20:44:21.656Z,11.15
2022-11-16T20:47:24.865Z,10.68
2022-11-16T20:50:28.474Z,10.68
2022-11-16T20:53:31.988Z,9.73
2022-11-16T20:56:35.706Z,9.93
2022-11-16T20:59:38.428Z,10.77
2022-11-16T21:02:41.581Z,10.98
2022-11-16T21:05:46.432Z,10.10
2022-11-16T21:08:49.290Z,9.50
2022-11-16T21:12:10.414Z,10.07
2022-11-16T21:15:13.273Z,10.27
2022-11-16T21:18:16.054Z,9.60
2022-11-16T21:21:18.749Z,10.68
2022-11-16T21:24:22.068Z,9.53
2022-11-16T21:27:24.691Z,9.85
2022-11-16T21:30:27.343Z,9.25
2022-11-16T21:33:30.149Z,10.13
2022-11-16T21:36:33.426Z,10.40
2022-11-16T21:39:36.187Z,10.17
2022-11-16T21:42:38.871Z,10.02
2022-11-16T21:45:42.728Z,9.57
2022-11-16T21:49:04.145Z,9.95
2022-11-16T21:52:06.974Z,9.30
2022-11-16T21:55:09.641Z,9.70
2022-11-16T21:58:12.257Z,9.38
2022-11-16T22:01:17.771Z,10.77
2022-11-16T22:04:38.790Z,9.13
2022-11-16T22:07:42.096Z,9.95
2022-11-16T22:10:50.902Z,10.63
2022-11-16T22:13:53.525Z,9.88
2022-11-16T22:16:56.194Z,10.77
2022-11-16T22:19:59.148Z,10.10
2022-11-16T22:23:01.773Z,10.27
2022-11-16T22:26:06.975Z,10.50
2022-11-16T22:29:09.943Z,9.35
2022-11-16T22:32:12.563Z,9.10
2022-11-16T22:35:15.335Z,10.43
2022-11-16T22:38:17.973Z,9.20
2022-11-16T22:41:20.933Z,10.50
2022-11-16T22:44:23.559Z,8.63
2022-11-16T22:47:26.121Z,10.45
2022-11-16T22:50:28.779Z,10.95
2022-11-16T22:53:31.524Z,10.00
2022-11-16T22:56:34.401Z,10.47
2022-11-16T22:59:37.019Z,9.13
2022-11-16T23:02:39.657Z,9.77
2022-11-16T23:05:42.313Z,10.07
2022-11-16T23:08:45.091Z,9.57
2022-11-16T23:12:06.179Z,9.23
2022-11-16T23:15:31.329Z,8.90
2022-11-16T23:18:34.368Z,9.40
2022-11-16T23:21:55.459Z,8.27
2022-11-16T23:25:16.741Z,9.45
2022-11-16T23:28:20.416Z,8.57
2022-11-16T23:31:23.052Z,8.90
2022-11-16T23:34:25.680Z,10.88
2022-11-16T23:37:31.318Z,8.45
2022-11-16T23:40:38.066Z,8.73
2022-11-16T23:43:58.590Z,8.83
2022-11-16T23:47:01.229Z,9.75
2022-11-16T23:50:04.489Z,8.57
2022-11-16T23:53:09.123Z,8.52
2022-11-16T23:56:11.964Z,8.18
2022-11-16T23:59:14.711Z,8.70
